createdAt,value
2022-10-22T00:00:18.172Z,13.810185
2022-10-22T00:05:17.697Z,13.988426
2022-10-22T00:10:17.592Z,13.981481
2022-10-22T00:15:17.648Z,13.944444
2022-10-22T00:20:17.709Z,13.895833
2022-10-22T00:25:18.283Z,13.833333
2022-10-22T00:30:17.578Z,13.868056
2022-10-22T00:35:17.635Z,13.944444
2022-10-22T00:40:18.096Z,13.942130
2022-10-22T00:45:17.931Z,13.942130
2022-10-22T00:50:18.029Z,14.020833
2022-10-22T00:55:17.717Z,14.057870
2022-10-22T01:00:17.678Z,14.101852
2022-10-22T01:05:17.936Z,14.108796
2022-10-22T01:10:17.643Z,14.083333
2022-10-22T01:15:17.547Z,14.004630
2022-10-22T01:20:18.050Z,13.907407
2022-10-22T01:25:17.661Z,13.840278
2022-10-22T01:30:17.878Z,13.826389
2022-10-22T01:35:17.644Z,13.791667
2022-10-22T01:40:17.594Z,13.754630
2022-10-22T01:45:17.517Z,13.692130
2022-10-22T01:50:17.533Z,13.655093
2022-10-22T01:55:17.557Z,13.604167
2022-10-22T02:00:17.937Z,13.555556
2022-10-22T02:05:17.542Z,13.576389
2022-10-22T02:10:17.486Z,13.590278
2022-10-22T02:15:17.593Z,13.581019
2022-10-22T02:20:17.498Z,13.571759
2022-10-22T02:25:17.525Z,13.555556
2022-10-22T02:30:17.943Z,13.511574
2022-10-22T02:35:17.548Z,13.467593
2022-10-22T02:40:17.495Z,13.400463
2022-10-22T02:45:17.532Z,13.375000
2022-10-22T02:50:17.829Z,13.388889
2022-10-22T02:55:17.596Z,13.414352
2022-10-22T03:00:17.648Z,13.453704
2022-10-22T03:05:17.535Z,13.555556
2022-10-22T03:10:17.565Z,13.571759
2022-10-22T03:15:17.686Z,13.685185
2022-10-22T03:20:17.631Z,13.814815
2022-10-22T03:25:17.591Z,13.900463
2022-10-22T03:30:17.499Z,13.969907
2022-10-22T03:35:17.592Z,14.046667
2022-10-22T03:40:17.687Z,14.081019
2022-10-22T03:45:17.709Z,14.111111
2022-10-22T03:50:17.576Z,14.129630
2022-10-22T03:55:17.461Z,14.159722
2022-10-22T04:00:17.680Z,14.129630
2022-10-22T04:05:17.627Z,14.134259
2022-10-22T04:10:17.458Z,14.122685
2022-10-22T04:15:17.462Z,14.017778
2022-10-22T04:20:18.028Z,14.046296
2022-10-22T04:25:17.521Z,14.124444
2022-10-22T04:30:17.738Z,14.228889
2022-10-22T04:35:17.595Z,14.368056
2022-10-22T04:40:17.773Z,14.497685
2022-10-22T04:45:17.541Z,14.509259
2022-10-22T04:50:17.898Z,14.509259
2022-10-22T04:55:17.753Z,14.469907
2022-10-22T05:00:17.556Z,14.395833
2022-10-22T05:05:17.660Z,14.314815
2022-10-22T05:10:17.429Z,14.185185
2022-10-22T05:15:17.503Z,14.087963
2022-10-22T05:20:17.600Z,14.115741
2022-10-22T05:25:17.765Z,14.192130
2022-10-22T05:30:17.495Z,14.222222
2022-10-22T05:35:17.497Z,14.240741
2022-10-22T05:40:26.481Z,14.300926
2022-10-22T05:45:17.879Z,14.335648
2022-10-22T05:50:17.859Z,14.349537
2022-10-22T05:55:17.651Z,14.333333
2022-10-22T06:00:17.565Z,14.398148
2022-10-22T06:05:17.620Z,14.395833
2022-10-22T06:10:17.433Z,14.388889
2022-10-22T06:15:17.779Z,14.409722
2022-10-22T06:20:17.690Z,14.469907
2022-10-22T06:25:17.546Z,14.504630
2022-10-22T06:30:17.655Z,14.532407
2022-10-22T06:35:17.483Z,14.592593
2022-10-22T06:40:17.496Z,14.634259
2022-10-22T06:45:17.389Z,14.668889
2022-10-22T06:50:17.748Z,14.738426
2022-10-22T06:55:17.437Z,14.810185
2022-10-22T07:00:17.568Z,14.858796
2022-10-22T07:05:17.474Z,14.922222
2022-10-22T07:10:17.381Z,14.939815
2022-10-22T07:15:17.860Z,14.944444
2022-10-22T07:20:17.499Z,14.914352
2022-10-22T07:25:17.694Z,14.895833
2022-10-22T07:30:17.373Z,14.842593
2022-10-22T07:35:17.453Z,14.831019
2022-10-22T07:40:17.486Z,14.784722
2022-10-22T07:45:17.540Z,14.756944
2022-10-22T07:50:17.413Z,14.703704
2022-10-22T07:55:17.618Z,14.650463
2022-10-22T08:00:20.500Z,14.560185
2022-10-22T08:05:17.455Z,14.506667
2022-10-22T08:10:17.789Z,14.504630
2022-10-22T08:15:17.678Z,14.564444
2022-10-22T08:20:17.483Z,14.634259
2022-10-22T08:25:17.415Z,14.724537
2022-10-22T08:30:17.345Z,14.819444
2022-10-22T08:35:17.784Z,14.833333
2022-10-22T08:40:17.752Z,14.805556
2022-10-22T08:45:17.371Z,14.736111
2022-10-22T08:50:17.599Z,14.638889
2022-10-22T08:55:17.361Z,14.490741
2022-10-22T09:00:17.419Z,14.444444
2022-10-22T09:05:17.507Z,14.486111
2022-10-22T09:10:17.362Z,14.479167
2022-10-22T09:15:17.595Z,14.358796
2022-10-22T09:20:17.816Z,14.335648
2022-10-22T09:25:17.703Z,14.495370
2022-10-22T09:30:17.339Z,14.754630
2022-10-22T09:35:17.431Z,15.083333
2022-10-22T09:40:17.661Z,15.356481
2022-10-22T09:45:17.368Z,15.504630
2022-10-22T09:50:17.411Z,15.592593
2022-10-22T09:55:17.363Z,15.590278
2022-10-22T10:00:17.767Z,15.652778
2022-10-22T10:05:17.941Z,15.682870
2022-10-22T10:10:17.676Z,15.671111
2022-10-22T10:15:17.514Z,15.666667
2022-10-22T10:20:17.673Z,15.673611
2022-10-22T10:25:17.541Z,15.777778
2022-10-22T10:30:17.412Z,15.912037
2022-10-22T10:35:17.537Z,16.046296
2022-10-22T10:40:17.431Z,16.043981
2022-10-22T10:45:17.862Z,16.094907
2022-10-22T10:50:17.419Z,16.611111
2022-10-22T10:55:17.443Z,16.870370
2022-10-22T11:00:17.571Z,16.905093
2022-10-22T11:05:17.343Z,17.692130
2022-10-22T11:10:17.353Z,18.157778
2022-10-22T11:15:17.496Z,17.713333
2022-10-22T11:20:17.414Z,17.293981
2022-10-22T11:25:17.533Z,17.590278
2022-10-22T11:30:17.340Z,17.646667
2022-10-22T11:35:17.557Z,17.574074
2022-10-22T11:40:17.341Z,17.634259
2022-10-22T11:45:17.591Z,17.891111
2022-10-22T11:50:17.429Z,17.898148
2022-10-22T11:55:17.396Z,18.023148
2022-10-22T12:00:17.378Z,18.013889
2022-10-22T12:05:17.429Z,18.126667
2022-10-22T12:10:18.462Z,18.228889
2022-10-22T12:15:17.314Z,18.202222
2022-10-22T12:20:17.510Z,18.196759
2022-10-22T12:25:17.463Z,18.442130
2022-10-22T12:30:17.750Z,18.363426
2022-10-22T12:35:17.616Z,18.182870
2022-10-22T12:40:17.809Z,18.296296
2022-10-22T12:45:17.445Z,18.384259
2022-10-22T12:50:17.511Z,18.537778
2022-10-22T12:55:17.461Z,18.717593
2022-10-22T13:00:17.603Z,18.618056
2022-10-22T13:05:17.491Z,18.594907
2022-10-22T13:10:17.522Z,18.555556
2022-10-22T13:15:17.757Z,18.562500
2022-10-22T13:20:17.377Z,18.622222
2022-10-22T13:25:17.289Z,18.472222
2022-10-22T13:30:17.315Z,18.342593
2022-10-22T13:35:17.385Z,18.328704
2022-10-22T13:40:17.284Z,18.273148
2022-10-22T13:45:17.239Z,18.277778
2022-10-22T13:50:17.391Z,18.277778
2022-10-22T13:55:17.282Z,18.271111
2022-10-22T14:00:17.418Z,18.236111
2022-10-22T14:05:17.303Z,18.277778
2022-10-22T14:10:17.234Z,18.243056
2022-10-22T14:15:17.375Z,18.166667
2022-10-22T14:20:17.489Z,18.148148
2022-10-22T14:25:17.462Z,18.155093
2022-10-22T14:30:17.348Z,18.261574
2022-10-22T14:35:17.371Z,18.212963
2022-10-22T14:40:17.416Z,18.168981
2022-10-22T14:45:17.282Z,18.020833
2022-10-22T14:50:17.554Z,17.856481
2022-10-22T14:55:17.490Z,17.745370
2022-10-22T15:00:17.842Z,17.592593
2022-10-22T15:05:17.252Z,17.444444
2022-10-22T15:10:17.514Z,17.326389
2022-10-22T15:15:18.238Z,17.071759
2022-10-22T15:20:17.696Z,16.856481
2022-10-22T15:25:17.430Z,16.599537
2022-10-22T15:30:17.277Z,16.337963
2022-10-22T15:35:17.480Z,16.189815
2022-10-22T15:40:17.458Z,15.979167
2022-10-22T15:45:17.362Z,15.787037
2022-10-22T15:50:17.225Z,15.530093
2022-10-22T15:55:17.214Z,15.372685
2022-10-22T16:00:17.851Z,15.282407
2022-10-22T16:05:17.269Z,15.208333
2022-10-22T16:10:17.304Z,14.981481
2022-10-22T16:15:17.324Z,14.381944
2022-10-22T16:20:17.462Z,14.074074
2022-10-22T16:25:17.307Z,14.101852
2022-10-22T16:30:17.291Z,14.078704
2022-10-22T16:35:17.340Z,14.106481
2022-10-22T16:40:17.214Z,13.905093
2022-10-22T16:45:17.516Z,13.807870
2022-10-22T16:50:17.481Z,13.638889
2022-10-22T16:55:17.475Z,13.555556
2022-10-22T17:00:17.548Z,13.377315
2022-10-22T17:05:17.387Z,13.062500
2022-10-22T17:10:17.642Z,13.199074
2022-10-22T17:15:17.424Z,13.289352
2022-10-22T17:20:17.448Z,13.104167
2022-10-22T17:25:17.440Z,12.972222
2022-10-22T17:30:17.325Z,13.150463
2022-10-22T17:35:17.332Z,13.346667
2022-10-22T17:40:17.289Z,13.655556
2022-10-22T17:45:17.244Z,13.704444
2022-10-22T17:50:17.492Z,13.613333
2022-10-22T17:55:17.188Z,13.228889
2022-10-22T18:00:17.204Z,13.268519
2022-10-22T18:05:17.356Z,12.935185
2022-10-22T18:10:17.183Z,12.807870
2022-10-22T18:15:17.192Z,12.650463
2022-10-22T18:20:17.364Z,12.984444
2022-10-22T18:25:17.161Z,13.380000
2022-10-22T18:30:17.141Z,13.590278
2022-10-22T18:35:17.349Z,13.375000
2022-10-22T18:40:17.195Z,13.388889
2022-10-22T18:45:17.170Z,13.351852
2022-10-22T18:50:17.261Z,13.513889
2022-10-22T18:55:17.516Z,13.807870
2022-10-22T19:00:17.209Z,13.837963
2022-10-22T19:05:17.202Z,13.782222
2022-10-22T19:10:17.256Z,13.543981
2022-10-22T19:15:17.262Z,13.541667
2022-10-22T19:20:17.262Z,13.608889
2022-10-22T19:25:17.252Z,13.504630
2022-10-22T19:30:17.257Z,13.435185
2022-10-22T19:35:17.142Z,13.371111
2022-10-22T19:40:17.538Z,13.090278
2022-10-22T19:45:17.675Z,12.606481
2022-10-22T19:50:17.637Z,12.194444
2022-10-22T19:55:17.208Z,11.824074
2022-10-22T20:00:17.738Z,11.560000
2022-10-22T20:05:17.364Z,11.465278
2022-10-22T20:10:17.416Z,10.986667
2022-10-22T20:15:17.619Z,10.922222
2022-10-22T20:20:17.216Z,10.840000
2022-10-22T20:25:17.209Z,10.791667
2022-10-22T20:30:22.320Z,10.580000
2022-10-22T20:35:17.161Z,10.342222
2022-10-22T20:40:17.234Z,10.303241
2022-10-22T20:45:17.458Z,10.448889
2022-10-22T20:50:17.190Z,10.347222
2022-10-22T20:55:17.190Z,10.120370
2022-10-22T21:00:17.153Z,9.976852
2022-10-22T21:05:17.134Z,9.967593
2022-10-22T21:10:17.112Z,9.990741
2022-10-22T21:15:17.279Z,9.956019
2022-10-22T21:20:19.780Z,9.590278
2022-10-22T21:25:17.261Z,9.358796
2022-10-22T21:30:17.489Z,9.421296
2022-10-22T21:35:17.364Z,9.252315
2022-10-22T21:40:17.435Z,9.266204
2022-10-22T21:45:20.016Z,9.155093
2022-10-22T21:50:17.549Z,9.456019
2022-10-22T21:55:17.169Z,9.599537
2022-10-22T22:00:17.888Z,9.497685
2022-10-22T22:05:17.244Z,9.578704
2022-10-22T22:10:17.220Z,9.861111
2022-10-22T22:15:17.062Z,9.696759
2022-10-22T22:20:17.115Z,9.650463
2022-10-22T22:25:17.067Z,9.868056
2022-10-22T22:30:17.050Z,9.833333
2022-10-22T22:35:17.090Z,9.747685
2022-10-22T22:40:17.291Z,9.532407
2022-10-22T22:45:17.103Z,9.580000
2022-10-22T22:50:17.144Z,9.879630
2022-10-22T22:55:17.149Z,10.270833
2022-10-22T23:00:17.050Z,10.418981
2022-10-22T23:05:17.174Z,10.544444
2022-10-22T23:10:17.064Z,10.493056
2022-10-22T23:15:17.059Z,10.412037
2022-10-22T23:20:17.093Z,10.326389
2022-10-22T23:25:17.165Z,10.238426
2022-10-22T23:30:17.088Z,10.342593
2022-10-22T23:35:17.227Z,10.277778
2022-10-22T23:40:17.147Z,10.125000
2022-10-22T23:45:17.408Z,10.064815
2022-10-22T23:50:17.117Z,10.155093
2022-10-22T23:55:16.965Z,10.081019
